Time;durP1;ratioP1;P1;durP2;ratioP2;P2;SDS_P1;SDS_P2;PMS_P1;PMS_P2;Temp;Humidity;BMP_temperature;BMP_pressure;BME280_temperature;BME280_humidity;BME280_pressure;Samples;Min_cycle;Max_cycle;Signal;HPM_P1;HPM_P2
2022/10/21 00:01:49;;;;;;;;;;;15.80;88.50;;;;;;5005029;28;19967;-86
2022/10/21 00:04:24;;;;;;;;;;;15.70;88.90;;;;;;5010943;28;19913;-88
2022/10/21 00:09:49;;;;;;;;;;;15.60;89.20;;;;;;5026226;28;19941;-87
2022/10/21 00:12:27;;;;;;;;;;;15.60;89.00;;;;;;5046572;28;19914;-87
2022/10/21 00:14:53;;;;;;;;;;;15.60;89.10;;;;;;5053752;28;20072;-87
2022/10/21 00:17:18;;;;;;;;;;;15.50;89.30;;;;;;5027658;28;20076;-88
2022/10/21 00:19:44;;;;;;;;;;;15.50;89.20;;;;;;5034270;28;19924;-88
2022/10/21 00:22:13;;;;;;;;;;;15.40;89.40;;;;;;5043824;28;19971;-88
2022/10/21 00:24:39;;;;;;;;;;;15.50;89.30;;;;;;5020269;28;20000;-85
2022/10/21 00:27:05;;;;;;;;;;;15.50;89.10;;;;;;5030354;28;19964;-86
2022/10/21 00:29:30;;;;;;;;;;;15.50;88.90;;;;;;5030512;28;19919;-86
2022/10/21 00:31:56;;;;;;;;;;;15.50;89.20;;;;;;5060612;28;19914;-86
2022/10/21 00:34:21;;;;;;;;;;;15.40;89.30;;;;;;5054142;28;19917;-86
2022/10/21 00:36:47;;;;;;;;;;;15.30;89.50;;;;;;5045056;28;19929;-87
2022/10/21 00:39:15;;;;;;;;;;;15.30;89.50;;;;;;5019304;28;20559;-87
2022/10/21 00:41:48;;;;;;;;;;;15.40;89.70;;;;;;5024939;28;19909;-87
2022/10/21 00:44:22;;;;;;;;;;;15.30;89.60;;;;;;5021884;28;20004;-88
2022/10/21 00:46:50;;;;;;;;;;;15.20;90.00;;;;;;5031292;22;805955;-82
2022/10/21 00:49:19;;;;;;;;;;;15.40;89.60;;;;;;5037589;28;19971;-83
2022/10/21 00:51:47;;;;;;;;;;;15.40;89.60;;;;;;5051816;28;19944;-82
2022/10/21 00:54:13;;;;;;;;;;;15.60;88.70;;;;;;5031727;28;19917;-82
2022/10/21 00:56:39;;;;;;;;;;;15.50;88.80;;;;;;5034563;28;19955;-82
2022/10/21 00:59:05;;;;;;;;;;;15.60;88.60;;;;;;5016820;28;19921;-82
2022/10/21 01:01:31;;;;;;;;;;;15.60;88.70;;;;;;5017857;28;19913;-82
2022/10/21 01:03:56;;;;;;;;;;;15.50;88.40;;;;;;5021286;28;20367;-82
2022/10/21 01:06:23;;;;;;;;;;;15.50;88.70;;;;;;5027551;28;20115;-82
2022/10/21 01:08:49;;;;;;;;;;;15.50;88.80;;;;;;5017758;28;20359;-82
2022/10/21 01:11:16;;;;;;;;;;;15.40;89.10;;;;;;5014885;28;20081;-82
2022/10/21 01:13:50;;;;;;;;;;;15.50;88.60;;;;;;5021243;28;20375;-82
2022/10/21 01:16:19;;;;;;;;;;;15.50;88.70;;;;;;5019374;28;19914;-82
2022/10/21 01:18:52;;;;;;;;;;;15.30;88.90;;;;;;5013066;28;19910;-82
2022/10/21 01:21:30;;;;;;;;;;;15.40;88.50;;;;;;5007294;28;20348;-82
2022/10/21 01:24:22;;;;;;;;;;;15.30;88.50;;;;;;5018383;28;19917;-82
2022/10/21 01:27:06;;;;;;;;;;;15.30;88.60;;;;;;5007441;28;19921;-82
2022/10/21 01:29:50;;;;;;;;;;;15.20;88.60;;;;;;5011486;28;19920;-82
2022/10/21 01:32:26;;;;;;;;;;;15.20;88.40;;;;;;5015157;28;19921;-82
2022/10/21 01:34:55;;;;;;;;;;;15.20;88.60;;;;;;5016882;28;19999;-82
2022/10/21 01:37:23;;;;;;;;;;;15.20;88.60;;;;;;5014539;28;19914;-82
2022/10/21 01:39:53;;;;;;;;;;;15.30;88.40;;;;;;5011389;28;20288;-82
2022/10/21 01:42:22;;;;;;;;;;;15.20;88.40;;;;;;5019570;28;19921;-82
2022/10/21 01:44:50;;;;;;;;;;;15.30;88.00;;;;;;5018104;28;19913;-83
2022/10/21 01:47:21;;;;;;;;;;;15.30;88.20;;;;;;5022046;28;19917;-83
2022/10/21 01:49:52;;;;;;;;;;;15.20;87.90;;;;;;5020001;28;19920;-82
2022/10/21 01:52:18;;;;;;;;;;;15.10;88.40;;;;;;5014982;28;19909;-82
2022/10/21 01:54:46;;;;;;;;;;;15.00;88.50;;;;;;5018266;28;20353;-83
2022/10/21 01:57:13;;;;;;;;;;;14.90;88.80;;;;;;5018546;28;20299;-82
2022/10/21 01:59:40;;;;;;;;;;;14.80;89.10;;;;;;5013816;28;19946;-83
2022/10/21 02:02:06;;;;;;;;;;;14.80;89.20;;;;;;5012316;28;19914;-82
2022/10/21 02:04:33;;;;;;;;;;;14.70;89.30;;;;;;5015808;28;19956;-82
2022/10/21 02:06:58;;;;;;;;;;;14.60;89.30;;;;;;5020603;28;19932;-82
2022/10/21 02:09:24;;;;;;;;;;;14.60;89.40;;;;;;5014744;28;20019;-82
2022/10/21 02:11:50;;;;;;;;;;;14.50;89.40;;;;;;5019160;28;20391;-82
2022/10/21 02:14:22;;;;;;;;;;;14.50;89.50;;;;;;5015297;28;19913;-82
2022/10/21 02:16:48;;;;;;;;;;;14.40;89.50;;;;;;5018957;28;20283;-82
2022/10/21 02:19:15;;;;;;;;;;;14.40;89.50;;;;;;5019336;28;20434;-82
2022/10/21 02:21:41;;;;;;;;;;;14.30;89.70;;;;;;5031298;28;19917;-81
2022/10/21 02:24:26;;;;;;;;;;;14.20;89.80;;;;;;5021732;28;19917;-83
2022/10/21 02:26:51;;;;;;;;;;;14.10;89.80;;;;;;5017772;28;19995;-82
2022/10/21 02:29:20;;;;;;;;;;;14.10;89.90;;;;;;5020693;28;19913;-82
2022/10/21 02:32:04;;;;;;;;;;;14.10;89.90;;;;;;5017689;28;20409;-83
2022/10/21 02:34:32;;;;;;;;;;;14.00;90.00;;;;;;5020884;28;19924;-83
2022/10/21 02:37:07;;;;;;;;;;;14.00;90.10;;;;;;5021337;28;20291;-82
2022/10/21 02:39:38;;;;;;;;;;;14.00;90.00;;;;;;5019427;28;19972;-83
2022/10/21 02:42:06;;;;;;;;;;;13.90;89.90;;;;;;5020130;28;19910;-83
2022/10/21 02:44:31;;;;;;;;;;;13.90;90.00;;;;;;5017027;28;19927;-83
2022/10/21 02:46:57;;;;;;;;;;;13.90;90.10;;;;;;5019114;28;19917;-83
2022/10/21 02:49:22;;;;;;;;;;;13.80;90.30;;;;;;5017258;28;19968;-83
2022/10/21 02:51:48;;;;;;;;;;;13.80;90.20;;;;;;5017065;28;19996;-83
2022/10/21 02:54:13;;;;;;;;;;;13.80;90.20;;;;;;5015035;28;20351;-83
2022/10/21 02:56:39;;;;;;;;;;;13.80;90.30;;;;;;5017869;28;20292;-82
2022/10/21 02:59:04;;;;;;;;;;;13.80;90.40;;;;;;5020171;28;20383;-82
2022/10/21 03:01:30;;;;;;;;;;;13.80;90.60;;;;;;5005820;28;20522;-82
2022/10/21 03:03:55;;;;;;;;;;;13.80;90.60;;;;;;5016789;28;19913;-82
2022/10/21 03:06:20;;;;;;;;;;;13.80;90.70;;;;;;5014777;28;19929;-82
2022/10/21 03:08:46;;;;;;;;;;;13.80;90.70;;;;;;5014779;28;19910;-82
2022/10/21 03:11:11;;;;;;;;;;;13.80;90.80;;;;;;5022400;28;20268;-81
2022/10/21 03:13:37;;;;;;;;;;;13.90;90.80;;;;;;5012338;28;19920;-82
2022/10/21 03:16:02;;;;;;;;;;;13.90;90.50;;;;;;5018764;28;20008;-82
2022/10/21 03:18:28;;;;;;;;;;;14.00;90.50;;;;;;5013769;28;19917;-81
2022/10/21 03:20:53;;;;;;;;;;;14.10;89.90;;;;;;5018880;28;19921;-82
2022/10/21 03:23:19;;;;;;;;;;;14.10;89.70;;;;;;5011136;28;20368;-81
2022/10/21 03:25:45;;;;;;;;;;;14.10;89.60;;;;;;5010942;28;20334;-82
2022/10/21 03:28:12;;;;;;;;;;;14.10;89.60;;;;;;5016871;28;19921;-82
2022/10/21 03:30:37;;;;;;;;;;;14.20;89.20;;;;;;5015332;28;19915;-82
2022/10/21 03:33:03;;;;;;;;;;;14.10;89.20;;;;;;5012548;28;20072;-82
2022/10/21 03:35:28;;;;;;;;;;;14.10;89.20;;;;;;5008112;28;19917;-81
2022/10/21 03:37:54;;;;;;;;;;;14.20;88.90;;;;;;5011386;28;19924;-82
2022/10/21 03:40:19;;;;;;;;;;;14.30;88.40;;;;;;5016172;28;19924;-82
2022/10/21 03:42:45;;;;;;;;;;;14.30;88.30;;;;;;5009313;28;20032;-82
2022/10/21 03:45:11;;;;;;;;;;;14.40;88.00;;;;;;5015292;28;19913;-82
2022/10/21 03:47:36;;;;;;;;;;;14.40;88.00;;;;;;5015331;28;19924;-82
2022/10/21 03:50:02;;;;;;;;;;;14.40;87.80;;;;;;5010070;28;19913;-82
2022/10/21 03:52:27;;;;;;;;;;;14.50;87.50;;;;;;5020044;28;19913;-82
2022/10/21 03:54:53;;;;;;;;;;;14.60;87.50;;;;;;5009965;28;20025;-81
2022/10/21 03:57:18;;;;;;;;;;;14.50;87.60;;;;;;5021111;28;19909;-82
2022/10/21 03:59:44;;;;;;;;;;;14.60;87.30;;;;;;5022050;28;19917;-83
2022/10/21 04:02:09;;;;;;;;;;;14.60;87.30;;;;;;5010850;28;19948;-82
2022/10/21 04:04:35;;;;;;;;;;;14.60;87.20;;;;;;5011094;28;19918;-82
2022/10/21 04:07:00;;;;;;;;;;;14.60;87.40;;;;;;5018553;28;19960;-83
2022/10/21 04:09:26;;;;;;;;;;;14.60;87.20;;;;;;5028030;28;20514;-82
2022/10/21 04:11:51;;;;;;;;;;;14.60;87.20;;;;;;5031073;28;20629;-83
2022/10/21 04:14:17;;;;;;;;;;;14.60;87.30;;;;;;5020209;28;19925;-83
2022/10/21 04:16:42;;;;;;;;;;;14.70;87.10;;;;;;5033412;28;20008;-82
2022/10/21 04:19:08;;;;;;;;;;;14.70;86.60;;;;;;5016571;28;20012;-82
2022/10/21 04:21:33;;;;;;;;;;;14.60;86.90;;;;;;5020432;28;19921;-82
2022/10/21 04:23:58;;;;;;;;;;;14.60;87.10;;;;;;5021064;28;19953;-82
2022/10/21 04:26:24;;;;;;;;;;;14.70;86.70;;;;;;5019703;28;19995;-82
2022/10/21 04:28:49;;;;;;;;;;;14.70;86.70;;;;;;5016352;28;19914;-82
2022/10/21 04:31:15;;;;;;;;;;;14.70;87.00;;;;;;5016439;28;19914;-82
2022/10/21 04:33:40;;;;;;;;;;;14.80;86.60;;;;;;5016039;28;20000;-82
2022/10/21 04:36:06;;;;;;;;;;;14.70;86.60;;;;;;5031946;28;19993;-83
2022/10/21 04:38:31;;;;;;;;;;;14.80;86.50;;;;;;5020122;28;19918;-84
2022/10/21 04:40:57;;;;;;;;;;;14.70;86.70;;;;;;5027208;28;19921;-84
2022/10/21 04:43:23;;;;;;;;;;;14.60;86.90;;;;;;5018291;28;19921;-85
2022/10/21 04:45:48;;;;;;;;;;;14.60;87.10;;;;;;5021203;28;19960;-84
2022/10/21 04:48:14;;;;;;;;;;;14.60;87.30;;;;;;5010654;28;19922;-84
2022/10/21 04:50:39;;;;;;;;;;;14.60;87.10;;;;;;5020882;28;20000;-84
2022/10/21 04:53:05;;;;;;;;;;;14.50;87.30;;;;;;5014981;28;19921;-85
2022/10/21 04:55:30;;;;;;;;;;;14.60;87.40;;;;;;5013637;28;19917;-84
2022/10/21 04:57:56;;;;;;;;;;;14.60;87.30;;;;;;5020526;28;20016;-84
2022/10/21 05:00:21;;;;;;;;;;;14.60;87.50;;;;;;5035543;28;19905;-81
2022/10/21 05:02:46;;;;;;;;;;;14.60;87.30;;;;;;5019029;28;20287;-85
2022/10/21 05:05:12;;;;;;;;;;;14.80;87.00;;;;;;5017702;28;20353;-86
2022/10/21 05:07:38;;;;;;;;;;;14.80;86.90;;;;;;5018072;28;19917;-86
2022/10/21 05:10:04;;;;;;;;;;;14.70;86.90;;;;;;5023024;28;20425;-86
2022/10/21 05:12:29;;;;;;;;;;;14.80;86.70;;;;;;5023578;28;19917;-85
2022/10/21 05:14:54;;;;;;;;;;;14.80;86.80;;;;;;5018264;28;20256;-88
2022/10/21 05:17:20;;;;;;;;;;;14.80;86.50;;;;;;5017166;28;20272;-85
2022/10/21 05:19:45;;;;;;;;;;;14.80;86.40;;;;;;5018879;28;19944;-85
2022/10/21 05:22:11;;;;;;;;;;;14.90;86.40;;;;;;5035727;28;19922;-87
2022/10/21 05:24:36;;;;;;;;;;;14.80;86.40;;;;;;5035714;28;19913;-86
2022/10/21 05:27:04;;;;;;;;;;;14.90;86.30;;;;;;5023830;28;19920;-85
2022/10/21 05:29:42;;;;;;;;;;;14.80;86.30;;;;;;5010018;28;20364;-85
2022/10/21 05:32:16;;;;;;;;;;;14.80;86.60;;;;;;5020721;28;19920;-85
2022/10/21 05:34:48;;;;;;;;;;;14.80;86.50;;;;;;5012938;28;19917;-86
2022/10/21 05:37:22;;;;;;;;;;;14.80;86.70;;;;;;5030413;28;19921;-83
2022/10/21 05:39:54;;;;;;;;;;;14.80;86.80;;;;;;5026230;28;19918;-83
2022/10/21 05:42:33;;;;;;;;;;;14.80;86.70;;;;;;5020097;28;19920;-86
2022/10/21 05:45:18;;;;;;;;;;;14.90;86.40;;;;;;5026702;28;19913;-86
2022/10/21 05:47:53;;;;;;;;;;;14.90;86.30;;;;;;5023056;28;19968;-86
2022/10/21 05:56:26;;;;;;;;;;;15.00;86.30;;;;;;5001062;28;20390;-85
2022/10/21 05:59:21;;;;;;;;;;;14.90;86.30;;;;;;5003838;28;20119;-86
2022/10/21 06:01:47;;;;;;;;;;;14.90;86.40;;;;;;5009230;28;19913;-79
2022/10/21 06:04:21;;;;;;;;;;;14.90;86.20;;;;;;5015458;28;19914;-84
2022/10/21 06:06:49;;;;;;;;;;;15.10;85.80;;;;;;5039677;28;19913;-84
2022/10/21 06:09:24;;;;;;;;;;;;;;;;;;;;;
2022/10/21 06:11:50;;;;;;;;;;;14.90;86.10;;;;;;5016485;28;19913;-83
2022/10/21 06:14:54;;;;;;;;;;;14.90;85.90;;;;;;5014488;28;20012;-84
2022/10/21 06:17:49;;;;;;;;;;;14.90;86.10;;;;;;5015984;28;19914;-84
2022/10/21 06:20:33;;;;;;;;;;;15.00;86.20;;;;;;5005606;28;19921;-83
2022/10/21 06:23:17;;;;;;;;;;;14.80;86.40;;;;;;5026303;28;19920;-83
2022/10/21 06:25:57;;;;;;;;;;;14.60;86.90;;;;;;5000919;28;20478;-84
2022/10/21 06:28:23;;;;;;;;;;;14.60;87.30;;;;;;5024191;28;19959;-83
2022/10/21 06:30:49;;;;;;;;;;;14.60;87.30;;;;;;5014219;28;19968;-83
2022/10/21 06:33:14;;;;;;;;;;;14.60;87.50;;;;;;5012457;28;19913;-81
2022/10/21 06:35:40;;;;;;;;;;;14.60;87.60;;;;;;5013419;28;20391;-81
2022/10/21 06:38:05;;;;;;;;;;;14.60;87.50;;;;;;5019752;28;20299;-83
2022/10/21 06:40:31;;;;;;;;;;;14.60;87.80;;;;;;5033913;28;20298;-84
2022/10/21 06:42:57;;;;;;;;;;;14.60;87.70;;;;;;5024668;28;19913;-82
2022/10/21 06:45:22;;;;;;;;;;;14.50;88.00;;;;;;5024255;28;20003;-83
2022/10/21 06:47:49;;;;;;;;;;;14.50;88.20;;;;;;5010727;28;19948;-83
2022/10/21 06:50:14;;;;;;;;;;;14.50;88.30;;;;;;5032891;28;19941;-85
2022/10/21 06:52:40;;;;;;;;;;;14.50;88.40;;;;;;5019507;28;20426;-86
2022/10/21 06:55:06;;;;;;;;;;;14.50;88.50;;;;;;5020608;28;19914;-87
2022/10/21 06:57:32;;;;;;;;;;;14.50;88.40;;;;;;5023329;28;19918;-88
2022/10/21 07:03:29;;;;;;;;;;;14.50;88.40;;;;;;5012227;28;19920;-86
2022/10/21 07:09:12;;;;;;;;;;;14.60;88.50;;;;;;4927199;29;19925;-87
2022/10/21 07:11:37;;;;;;;;;;;14.60;88.40;;;;;;4912357;29;19914;-85
2022/10/21 07:14:08;;;;;;;;;;;14.70;88.60;;;;;;4916370;29;20038;-87
2022/10/21 07:16:34;;;;;;;;;;;14.80;88.40;;;;;;4950631;23;20222;-79
2022/10/21 07:19:00;;;;;;;;;;;15.00;88.00;;;;;;5015536;28;19960;-80
2022/10/21 07:21:27;;;;;;;;;;;14.90;88.10;;;;;;5011829;28;20013;-79
2022/10/21 07:23:53;;;;;;;;;;;15.00;88.00;;;;;;5010925;28;19961;-81
2022/10/21 07:26:19;;;;;;;;;;;15.00;87.90;;;;;;5014257;28;20312;-80
2022/10/21 07:28:46;;;;;;;;;;;15.00;87.70;;;;;;5014883;28;19913;-80
2022/10/21 07:31:21;;;;;;;;;;;15.10;87.80;;;;;;5011889;28;20301;-78
2022/10/21 07:33:46;;;;;;;;;;;15.10;87.70;;;;;;5014925;28;19913;-80
2022/10/21 07:36:13;;;;;;;;;;;15.20;87.70;;;;;;5009575;28;20032;-79
2022/10/21 07:38:42;;;;;;;;;;;15.40;87.30;;;;;;5011399;28;19936;-79
2022/10/21 07:41:12;;;;;;;;;;;15.30;87.40;;;;;;5042573;23;19932;-83
2022/10/21 07:43:38;;;;;;;;;;;15.40;87.40;;;;;;5032178;28;19963;-83
2022/10/21 07:46:03;;;;;;;;;;;15.50;87.00;;;;;;5031729;28;20322;-83
2022/10/21 07:48:28;;;;;;;;;;;15.50;87.10;;;;;;5032702;28;20333;-82
2022/10/21 07:51:00;;;;;;;;;;;15.50;87.00;;;;;;5017812;28;19909;-83
2022/10/21 07:53:26;;;;;;;;;;;15.60;86.80;;;;;;5011418;28;20028;-83
2022/10/21 07:55:59;;;;;;;;;;;15.70;86.20;;;;;;5011701;28;19996;-83
2022/10/21 07:58:25;;;;;;;;;;;15.80;85.90;;;;;;5012555;28;19935;-82
2022/10/21 08:00:50;;;;;;;;;;;15.90;85.60;;;;;;5015187;28;19913;-83
2022/10/21 08:03:16;;;;;;;;;;;15.90;85.50;;;;;;5013430;28;19910;-83
2022/10/21 08:05:41;;;;;;;;;;;16.00;85.30;;;;;;5014904;28;19935;-82
2022/10/21 08:08:06;;;;;;;;;;;15.90;85.20;;;;;;5014434;28;19932;-83
2022/10/21 08:10:37;;;;;;;;;;;15.90;85.20;;;;;;5011761;28;19952;-83
2022/10/21 08:13:02;;;;;;;;;;;15.90;85.40;;;;;;5013907;28;19916;-83
2022/10/21 08:15:28;;;;;;;;;;;16.00;85.40;;;;;;5012895;28;19909;-83
2022/10/21 08:17:53;;;;;;;;;;;16.10;85.00;;;;;;5014508;28;19963;-81
2022/10/21 08:20:19;;;;;;;;;;;16.10;84.70;;;;;;5010920;28;19917;-83
2022/10/21 08:22:44;;;;;;;;;;;16.20;84.70;;;;;;5013665;28;19910;-82
2022/10/21 08:25:12;;;;;;;;;;;16.20;84.50;;;;;;5018354;28;19914;-81
2022/10/21 08:27:38;;;;;;;;;;;16.30;84.50;;;;;;5014851;28;19949;-83
2022/10/21 08:30:03;;;;;;;;;;;16.30;84.50;;;;;;5028451;28;19897;-83
2022/10/21 08:32:29;;;;;;;;;;;16.30;84.40;;;;;;5014015;28;21594;-83
2022/10/21 08:34:54;;;;;;;;;;;16.20;84.80;;;;;;5015023;28;20008;-82
2022/10/21 08:37:20;;;;;;;;;;;16.30;84.60;;;;;;5014909;28;19909;-83
2022/10/21 08:39:45;;;;;;;;;;;16.40;84.30;;;;;;5012088;28;19971;-83
2022/10/21 08:42:13;;;;;;;;;;;16.40;84.60;;;;;;5012540;28;19909;-82
2022/10/21 08:44:40;;;;;;;;;;;16.30;84.60;;;;;;5012483;28;19909;-83
2022/10/21 08:47:12;;;;;;;;;;;16.30;84.90;;;;;;5011986;28;19909;-84
2022/10/21 08:49:40;;;;;;;;;;;16.30;85.50;;;;;;5011641;28;19910;-82
2022/10/21 08:52:12;;;;;;;;;;;16.20;86.00;;;;;;5014832;28;19909;-83
2022/10/21 08:54:43;;;;;;;;;;;16.20;86.40;;;;;;5017691;28;19910;-83
2022/10/21 08:57:10;;;;;;;;;;;16.10;86.90;;;;;;5015229;28;20427;-83
2022/10/21 08:59:35;;;;;;;;;;;16.00;87.10;;;;;;5016022;28;20044;-82
2022/10/21 09:02:21;;;;;;;;;;;16.10;87.40;;;;;;5015552;28;19980;-83
2022/10/21 09:05:06;;;;;;;;;;;16.10;87.80;;;;;;4956802;28;19956;-84
2022/10/21 09:07:42;;;;;;;;;;;16.00;88.20;;;;;;4986071;28;19916;-84
2022/10/21 09:10:24;;;;;;;;;;;15.90;88.70;;;;;;4996271;28;19921;-82
2022/10/21 09:12:58;;;;;;;;;;;15.80;88.80;;;;;;5008152;28;19909;-83
2022/10/21 09:15:27;;;;;;;;;;;15.80;89.20;;;;;;5014981;28;19921;-84
2022/10/21 09:18:04;;;;;;;;;;;15.70;89.60;;;;;;5016562;28;20327;-84
2022/10/21 09:20:35;;;;;;;;;;;15.70;89.70;;;;;;5016213;28;19920;-84
2022/10/21 09:23:02;;;;;;;;;;;15.70;89.80;;;;;;5011570;28;19917;-82
2022/10/21 09:25:27;;;;;;;;;;;15.80;89.30;;;;;;5003157;28;20548;-81
2022/10/21 09:27:54;;;;;;;;;;;15.80;89.40;;;;;;5007483;28;19925;-82
2022/10/21 09:30:21;;;;;;;;;;;15.90;89.60;;;;;;5024383;28;19959;-82
2022/10/21 09:32:49;;;;;;;;;;;15.80;89.70;;;;;;4999550;28;19945;-82
2022/10/21 09:35:19;;;;;;;;;;;15.80;89.90;;;;;;5014868;28;19918;-81
2022/10/21 09:37:48;;;;;;;;;;;15.80;89.90;;;;;;5014133;28;19921;-82
2022/10/21 09:40:14;;;;;;;;;;;15.70;90.10;;;;;;5016454;28;19991;-82
2022/10/21 09:42:40;;;;;;;;;;;15.60;90.50;;;;;;5014028;28;19921;-81
2022/10/21 09:45:14;;;;;;;;;;;15.60;90.70;;;;;;5015652;28;20437;-81
2022/10/21 09:47:39;;;;;;;;;;;15.60;90.80;;;;;;5012851;28;19968;-81
2022/10/21 09:50:05;;;;;;;;;;;15.70;91.10;;;;;;5013934;28;19913;-81
2022/10/21 09:52:33;;;;;;;;;;;15.60;90.90;;;;;;5012345;28;19920;-81
2022/10/21 09:54:59;;;;;;;;;;;15.70;90.90;;;;;;4997058;28;20536;-80
2022/10/21 09:57:35;;;;;;;;;;;15.60;91.00;;;;;;5006068;28;19974;-81
2022/10/21 10:00:01;;;;;;;;;;;15.70;91.00;;;;;;5012760;28;19917;-81
2022/10/21 10:02:31;;;;;;;;;;;15.60;90.90;;;;;;5000614;28;19925;-81
2022/10/21 10:04:56;;;;;;;;;;;15.60;91.30;;;;;;5000715;28;19914;-79
2022/10/21 10:07:25;;;;;;;;;;;15.60;91.30;;;;;;5023608;28;19913;-79
2022/10/21 10:09:50;;;;;;;;;;;15.80;91.20;;;;;;5016034;28;20048;-83
2022/10/21 10:12:20;;;;;;;;;;;15.80;91.00;;;;;;5015751;28;19948;-81
2022/10/21 10:14:46;;;;;;;;;;;15.90;90.70;;;;;;5012174;28;19913;-81
2022/10/21 10:17:27;;;;;;;;;;;15.90;90.50;;;;;;5012308;28;19929;-82
2022/10/21 10:20:05;;;;;;;;;;;15.80;90.70;;;;;;5013924;28;19917;-80
2022/10/21 10:22:32;;;;;;;;;;;15.80;90.90;;;;;;5014411;28;19914;-80
2022/10/21 10:25:06;;;;;;;;;;;15.90;90.70;;;;;;5017223;28;19980;-80
2022/10/21 10:27:32;;;;;;;;;;;16.00;90.80;;;;;;5016777;28;20399;-80
2022/10/21 10:29:59;;;;;;;;;;;16.00;90.90;;;;;;5016058;28;19956;-80
2022/10/21 10:32:28;;;;;;;;;;;16.00;90.70;;;;;;5014394;28;19920;-80
2022/10/21 10:34:55;;;;;;;;;;;16.00;90.60;;;;;;5031502;28;20367;-79
2022/10/21 10:37:23;;;;;;;;;;;16.00;90.70;;;;;;5009498;28;19921;-79
2022/10/21 10:39:51;;;;;;;;;;;16.00;90.60;;;;;;5011672;28;20351;-80
2022/10/21 10:42:43;;;;;;;;;;;16.00;90.80;;;;;;5005851;28;19921;-81
2022/10/21 10:45:13;;;;;;;;;;;16.00;90.70;;;;;;5003978;28;19924;-81
2022/10/21 10:47:45;;;;;;;;;;;16.10;90.30;;;;;;5016523;28;19913;-81
2022/10/21 10:50:33;;;;;;;;;;;16.20;90.10;;;;;;5012639;28;20358;-80
2022/10/21 10:53:28;;;;;;;;;;;16.20;90.10;;;;;;5006334;28;19917;-81
2022/10/21 10:55:57;;;;;;;;;;;16.20;90.40;;;;;;5001186;28;19963;-80
2022/10/21 10:58:25;;;;;;;;;;;16.10;90.40;;;;;;5011181;28;19913;-80
2022/10/21 11:00:52;;;;;;;;;;;16.20;90.10;;;;;;5011890;28;19921;-80
2022/10/21 11:03:22;;;;;;;;;;;16.30;90.10;;;;;;5008966;28;19924;-84
2022/10/21 11:05:49;;;;;;;;;;;16.20;90.00;;;;;;5021398;28;19944;-85
2022/10/21 11:08:18;;;;;;;;;;;16.40;90.20;;;;;;5013280;28;20267;-85
2022/10/21 11:10:49;;;;;;;;;;;16.40;90.00;;;;;;5011039;28;19910;-84
2022/10/21 11:13:16;;;;;;;;;;;16.30;90.00;;;;;;5027124;28;19909;-84
2022/10/21 11:15:48;;;;;;;;;;;16.30;90.10;;;;;;5034393;28;19917;-86
2022/10/21 11:18:17;;;;;;;;;;;16.40;89.90;;;;;;5015934;28;19921;-85
2022/10/21 11:20:48;;;;;;;;;;;16.30;89.70;;;;;;5010016;28;19948;-85
2022/10/21 11:23:26;;;;;;;;;;;16.30;89.50;;;;;;5008828;28;19917;-85
2022/10/21 11:26:01;;;;;;;;;;;16.30;89.60;;;;;;5017881;28;19913;-85
2022/10/21 11:28:26;;;;;;;;;;;16.20;89.70;;;;;;5011674;28;19909;-85
2022/10/21 11:31:11;;;;;;;;;;;16.20;89.90;;;;;;5011065;28;19960;-84
2022/10/21 11:33:42;;;;;;;;;;;16.10;90.10;;;;;;5013351;28;20426;-85
2022/10/21 11:36:08;;;;;;;;;;;16.10;89.80;;;;;;5014158;28;19909;-85
2022/10/21 11:38:33;;;;;;;;;;;16.10;89.80;;;;;;5012296;28;19972;-84
2022/10/21 11:41:16;;;;;;;;;;;16.10;89.80;;;;;;5014198;28;19918;-85
2022/10/21 11:43:55;;;;;;;;;;;16.00;89.70;;;;;;5011691;28;19920;-84
2022/10/21 11:46:39;;;;;;;;;;;16.10;89.60;;;;;;5031467;28;19920;-85
2022/10/21 11:49:05;;;;;;;;;;;16.00;89.60;;;;;;5015874;28;19967;-83
2022/10/21 11:51:36;;;;;;;;;;;16.10;89.30;;;;;;5018537;28;20532;-84
2022/10/21 11:54:20;;;;;;;;;;;16.10;89.30;;;;;;5015890;28;19918;-85
2022/10/21 11:57:09;;;;;;;;;;;16.10;89.20;;;;;;5010729;28;19910;-85
2022/10/21 11:59:41;;;;;;;;;;;16.20;89.50;;;;;;4998031;28;19922;-84
2022/10/21 12:02:16;;;;;;;;;;;16.20;89.20;;;;;;5017126;28;19913;-84
2022/10/21 12:04:54;;;;;;;;;;;16.30;88.90;;;;;;4991722;28;20012;-84
2022/10/21 12:07:28;;;;;;;;;;;16.40;88.60;;;;;;5008913;28;19909;-84
2022/10/21 12:09:58;;;;;;;;;;;16.40;88.60;;;;;;5007229;28;19913;-84
2022/10/21 12:12:29;;;;;;;;;;;16.40;88.40;;;;;;4998384;28;19914;-83
2022/10/21 12:14:56;;;;;;;;;;;16.50;88.40;;;;;;5010246;28;20275;-84
2022/10/21 12:17:23;;;;;;;;;;;16.50;88.40;;;;;;5011720;28;19918;-82
2022/10/21 12:20:06;;;;;;;;;;;16.60;88.70;;;;;;5007177;28;19925;-84
2022/10/21 12:22:32;;;;;;;;;;;16.60;88.20;;;;;;5007795;28;19913;-81
2022/10/21 12:25:08;;;;;;;;;;;16.60;88.00;;;;;;5011186;28;19918;-81
2022/10/21 12:27:34;;;;;;;;;;;16.60;88.40;;;;;;5011069;28;19963;-81
2022/10/21 12:30:02;;;;;;;;;;;16.70;88.40;;;;;;5011296;28;20002;-81
2022/10/21 12:32:43;;;;;;;;;;;16.70;88.10;;;;;;5013576;28;19913;-82
2022/10/21 12:35:12;;;;;;;;;;;16.70;87.90;;;;;;5013376;28;20129;-79
2022/10/21 12:37:42;;;;;;;;;;;16.80;88.10;;;;;;5011763;28;19917;-81
2022/10/21 12:40:13;;;;;;;;;;;16.80;88.10;;;;;;5007682;28;20120;-81
2022/10/21 12:42:43;;;;;;;;;;;17.00;88.60;;;;;;5014179;28;19914;-81
2022/10/21 12:45:27;;;;;;;;;;;17.10;88.50;;;;;;5013125;28;20394;-82
2022/10/21 12:47:53;;;;;;;;;;;17.30;87.80;;;;;;5014874;28;19940;-84
2022/10/21 12:50:29;;;;;;;;;;;17.60;87.30;;;;;;5012331;28;19918;-83
2022/10/21 12:53:06;;;;;;;;;;;17.60;87.20;;;;;;5016584;28;19944;-81
2022/10/21 12:55:38;;;;;;;;;;;17.50;87.00;;;;;;5010859;28;19914;-79
2022/10/21 12:58:05;;;;;;;;;;;17.40;87.40;;;;;;5006920;28;19918;-80
2022/10/21 13:00:30;;;;;;;;;;;17.30;87.90;;;;;;5009764;28;19921;-80
2022/10/21 13:03:04;;;;;;;;;;;17.40;87.90;;;;;;5014241;28;19921;-80
2022/10/21 13:05:35;;;;;;;;;;;17.50;87.70;;;;;;5012704;28;19917;-80
2022/10/21 13:08:18;;;;;;;;;;;17.60;87.40;;;;;;5014946;28;19918;-81
2022/10/21 13:11:05;;;;;;;;;;;17.80;86.40;;;;;;5013132;28;19913;-80
2022/10/21 13:13:33;;;;;;;;;;;17.70;86.80;;;;;;5014953;28;20004;-79
2022/10/21 13:16:01;;;;;;;;;;;17.60;87.40;;;;;;5013036;28;20476;-82
2022/10/21 13:18:45;;;;;;;;;;;17.70;87.80;;;;;;5013378;28;19925;-82
2022/10/21 13:21:30;;;;;;;;;;;17.80;87.50;;;;;;4993012;28;20501;-81
2022/10/21 13:23:56;;;;;;;;;;;17.90;87.30;;;;;;4984913;28;20032;-80
2022/10/21 13:26:24;;;;;;;;;;;17.90;87.30;;;;;;4986507;28;19909;-82
2022/10/21 13:28:55;;;;;;;;;;;17.80;87.70;;;;;;4972147;28;19914;-80
2022/10/21 13:31:20;;;;;;;;;;;17.80;87.40;;;;;;4978211;28;20016;-81
2022/10/21 13:33:53;;;;;;;;;;;17.80;87.50;;;;;;4971737;28;19910;-80
2022/10/21 13:36:45;;;;;;;;;;;17.90;87.50;;;;;;4977806;28;20169;-80
2022/10/21 13:39:29;;;;;;;;;;;17.80;87.40;;;;;;4967709;28;20091;-80
2022/10/21 13:42:14;;;;;;;;;;;17.90;86.90;;;;;;5017916;23;20189;-81
2022/10/21 13:44:41;;;;;;;;;;;17.90;86.70;;;;;;4995228;28;19916;-81
2022/10/21 13:47:26;;;;;;;;;;;17.80;87.00;;;;;;4980847;28;20032;-82
2022/10/21 13:49:52;;;;;;;;;;;17.70;87.00;;;;;;4988390;28;20214;-80
2022/10/21 13:52:18;;;;;;;;;;;17.70;87.00;;;;;;4984227;28;20434;-81
2022/10/21 13:54:44;;;;;;;;;;;17.60;87.10;;;;;;5019444;28;20400;-83
2022/10/21 13:57:14;;;;;;;;;;;17.60;87.80;;;;;;5049550;28;19960;-84
2022/10/21 13:59:39;;;;;;;;;;;17.50;87.80;;;;;;5033705;28;19921;-83
2022/10/21 14:02:05;;;;;;;;;;;17.60;87.40;;;;;;5034102;28;20004;-84
2022/10/21 14:04:31;;;;;;;;;;;17.60;87.60;;;;;;5033613;28;19967;-83
2022/10/21 14:06:59;;;;;;;;;;;17.50;88.00;;;;;;5033996;28;20291;-84
2022/10/21 14:09:26;;;;;;;;;;;17.70;87.60;;;;;;5031901;28;19913;-85
2022/10/21 14:11:55;;;;;;;;;;;17.70;87.10;;;;;;5026035;23;20377;-84
2022/10/21 14:14:22;;;;;;;;;;;17.70;86.90;;;;;;4967142;28;19924;-84
2022/10/21 14:16:50;;;;;;;;;;;17.70;87.50;;;;;;4968211;28;19913;-84
2022/10/21 14:19:36;;;;;;;;;;;17.70;86.60;;;;;;4967572;28;19909;-85
2022/10/21 14:22:01;;;;;;;;;;;17.80;86.30;;;;;;4948170;28;20241;-86
2022/10/21 14:24:46;;;;;;;;;;;17.90;85.70;;;;;;4949415;28;20493;-86
2022/10/21 14:27:32;;;;;;;;;;;18.00;84.70;;;;;;4962277;28;19921;-85
2022/10/21 14:30:03;;;;;;;;;;;17.90;84.70;;;;;;4953053;28;20216;-85
2022/10/21 14:32:29;;;;;;;;;;;17.70;85.00;;;;;;4962741;28;19993;-84
2022/10/21 14:34:57;;;;;;;;;;;17.70;85.90;;;;;;4966100;28;20257;-86
2022/10/21 14:37:23;;;;;;;;;;;17.70;86.30;;;;;;4969121;28;19916;-86
2022/10/21 14:39:48;;;;;;;;;;;17.60;86.50;;;;;;4927101;28;20247;-85
2022/10/21 14:42:22;;;;;;;;;;;17.70;86.60;;;;;;4948134;28;19910;-86
2022/10/21 14:44:55;;;;;;;;;;;17.70;86.80;;;;;;4908329;28;20028;-86
2022/10/21 14:47:25;;;;;;;;;;;17.80;86.90;;;;;;4896548;28;20196;-85
2022/10/21 14:49:52;;;;;;;;;;;17.90;85.80;;;;;;4887135;28;20070;-85